sensor_id;sensor_type;location;lat;lon;timestamp;P1;durP1;ratioP1;P2;durP2;ratioP2
39016;SDS011;24784;45.582;5.276;2022-11-09T00:01:49;8.23;;;2.30;;
39016;SDS011;24784;45.582;5.276;2022-11-09T00:07:03;3.38;;;1.88;;
39016;SDS011;24784;45.582;5.276;2022-11-09T00:12:09;8.25;;;2.55;;
39016;SDS011;24784;45.582;5.276;2022-11-09T00:14:43;5.45;;;2.65;;
39016;SDS011;24784;45.582;5.276;2022-11-09T00:17:28;6.75;;;3.08;;
39016;SDS011;24784;45.582;5.276;2022-11-09T00:25:35;8.48;;;3.97;;
39016;SDS011;24784;45.582;5.276;2022-11-09T00:34:06;5.63;;;2.80;;
39016;SDS011;24784;45.582;5.276;2022-11-09T00:36:51;8.80;;;3.13;;
39016;SDS011;24784;45.582;5.276;2022-11-09T00:39:43;8.27;;;2.75;;
39016;SDS011;24784;45.582;5.276;2022-11-09T00:42:36;4.28;;;3.45;;
39016;SDS011;24784;45.582;5.276;2022-11-09T00:45:22;6.50;;;4.55;;
39016;SDS011;24784;45.582;5.276;2022-11-09T00:56:14;5.85;;;3.70;;
39016;SDS011;24784;45.582;5.276;2022-11-09T00:58:58;6.22;;;3.13;;
39016;SDS011;24784;45.582;5.276;2022-11-09T01:01:44;9.30;;;3.00;;
39016;SDS011;24784;45.582;5.276;2022-11-09T01:04:57;5.03;;;2.90;;
39016;SDS011;24784;45.582;5.276;2022-11-09T01:10:31;6.50;;;3.17;;
39016;SDS011;24784;45.582;5.276;2022-11-09T01:13:28;7.72;;;3.15;;
39016;SDS011;24784;45.582;5.276;2022-11-09T01:19:13;16.10;;;4.18;;
39016;SDS011;24784;45.582;5.276;2022-11-09T01:24:26;4.50;;;3.08;;
39016;SDS011;24784;45.582;5.276;2022-11-09T01:32:41;6.20;;;3.90;;
39016;SDS011;24784;45.582;5.276;2022-11-09T01:35:13;12.88;;;3.92;;
39016;SDS011;24784;45.582;5.276;2022-11-09T01:37:46;7.55;;;4.57;;
39016;SDS011;24784;45.582;5.276;2022-11-09T01:46:13;9.25;;;5.65;;
39016;SDS011;24784;45.582;5.276;2022-11-09T01:49:50;9.27;;;6.47;;
39016;SDS011;24784;45.582;5.276;2022-11-09T01:57:32;6.30;;;3.90;;
39016;SDS011;24784;45.582;5.276;2022-11-09T02:06:00;9.05;;;3.63;;
39016;SDS011;24784;45.582;5.276;2022-11-09T02:08:39;6.40;;;3.35;;
39016;SDS011;24784;45.582;5.276;2022-11-09T02:17:30;5.78;;;3.00;;
39016;SDS011;24784;45.582;5.276;2022-11-09T02:20:14;12.07;;;3.53;;
39016;SDS011;24784;45.582;5.276;2022-11-09T02:22:54;8.05;;;3.05;;
39016;SDS011;24784;45.582;5.276;2022-11-09T22:13:58;30.50;;;18.95;;
39016;SDS011;24784;45.582;5.276;2022-11-09T22:16:42;28.40;;;18.83;;
39016;SDS011;24784;45.582;5.276;2022-11-09T22:19:08;34.58;;;19.77;;
39016;SDS011;24784;45.582;5.276;2022-11-09T22:21:52;36.90;;;21.00;;
39016;SDS011;24784;45.582;5.276;2022-11-09T22:24:18;35.95;;;22.23;;
39016;SDS011;24784;45.582;5.276;2022-11-09T22:26:43;37.63;;;22.27;;
39016;SDS011;24784;45.582;5.276;2022-11-09T22:29:09;37.72;;;22.60;;
39016;SDS011;24784;45.582;5.276;2022-11-09T22:31:35;41.83;;;24.85;;
39016;SDS011;24784;45.582;5.276;2022-11-09T22:34:01;41.45;;;25.02;;
39016;SDS011;24784;45.582;5.276;2022-11-09T22:36:26;43.47;;;24.17;;
39016;SDS011;24784;45.582;5.276;2022-11-09T22:38:52;43.35;;;24.27;;
39016;SDS011;24784;45.582;5.276;2022-11-09T22:41:20;42.75;;;25.02;;
39016;SDS011;24784;45.582;5.276;2022-11-09T22:43:48;37.47;;;22.73;;
39016;SDS011;24784;45.582;5.276;2022-11-09T22:46:15;57.70;;;29.38;;
39016;SDS011;24784;45.582;5.276;2022-11-09T22:48:42;63.53;;;30.27;;
39016;SDS011;24784;45.582;5.276;2022-11-09T22:51:10;51.42;;;29.10;;
39016;SDS011;24784;45.582;5.276;2022-11-09T22:53:36;41.00;;;24.50;;
39016;SDS011;24784;45.582;5.276;2022-11-09T22:56:02;38.75;;;22.73;;
39016;SDS011;24784;45.582;5.276;2022-11-09T22:58:29;37.65;;;21.08;;
39016;SDS011;24784;45.582;5.276;2022-11-09T23:01:02;41.38;;;23.48;;
39016;SDS011;24784;45.582;5.276;2022-11-09T23:03:33;36.38;;;23.38;;
39016;SDS011;24784;45.582;5.276;2022-11-09T23:06:00;45.60;;;27.70;;
39016;SDS011;24784;45.582;5.276;2022-11-09T23:08:30;54.45;;;31.67;;
39016;SDS011;24784;45.582;5.276;2022-11-09T23:10:57;51.20;;;29.88;;
39016;SDS011;24784;45.582;5.276;2022-11-09T23:13:23;50.92;;;28.30;;
39016;SDS011;24784;45.582;5.276;2022-11-09T23:15:53;47.67;;;27.33;;
39016;SDS011;24784;45.582;5.276;2022-11-09T23:18:24;50.85;;;27.30;;
39016;SDS011;24784;45.582;5.276;2022-11-09T23:21:09;50.10;;;27.65;;
39016;SDS011;24784;45.582;5.276;2022-11-09T23:23:35;46.05;;;27.63;;
39016;SDS011;24784;45.582;5.276;2022-11-09T23:26:02;52.92;;;29.55;;
39016;SDS011;24784;45.582;5.276;2022-11-09T23:28:28;49.92;;;29.27;;
39016;SDS011;24784;45.582;5.276;2022-11-09T23:31:01;56.17;;;29.92;;
39016;SDS011;24784;45.582;5.276;2022-11-09T23:33:32;57.13;;;31.15;;
39016;SDS011;24784;45.582;5.276;2022-11-09T23:35:58;56.42;;;31.85;;
39016;SDS011;24784;45.582;5.276;2022-11-09T23:38:25;57.15;;;30.00;;
39016;SDS011;24784;45.582;5.276;2022-11-09T23:40:51;46.35;;;27.88;;
39016;SDS011;24784;45.582;5.276;2022-11-09T23:43:17;60.90;;;34.28;;
39016;SDS011;24784;45.582;5.276;2022-11-09T23:45:42;67.07;;;37.92;;
39016;SDS011;24784;45.582;5.276;2022-11-09T23:48:15;68.68;;;36.78;;
39016;SDS011;24784;45.582;5.276;2022-11-09T23:50:43;52.15;;;29.90;;
39016;SDS011;24784;45.582;5.276;2022-11-09T23:53:09;50.70;;;28.27;;
39016;SDS011;24784;45.582;5.276;2022-11-09T23:55:35;49.40;;;28.20;;
39016;SDS011;24784;45.582;5.276;2022-11-09T23:58:02;56.58;;;30.35;;
